createdAt,value
2017-06-02T00:00:50.320Z,16.16
2017-06-02T00:01:50.897Z,16.23
2017-06-02T00:02:51.476Z,16.15
2017-06-02T00:03:52.053Z,16.17
2017-06-02T00:04:52.631Z,16.13
2017-06-02T00:05:53.208Z,15.98
2017-06-02T00:06:53.787Z,15.68
2017-06-02T00:07:54.364Z,15.73
2017-06-02T00:08:54.945Z,16.04
2017-06-02T00:09:55.523Z,16.15
2017-06-02T00:10:56.102Z,16.47
2017-06-02T00:11:56.682Z,16.64
2017-06-02T00:12:57.261Z,16.61
2017-06-02T00:13:57.840Z,16.29
2017-06-02T00:14:58.419Z,15.72
2017-06-02T00:15:58.998Z,15.51
2017-06-02T00:16:59.590Z,15.47
2017-06-02T00:18:00.169Z,15.62
2017-06-02T00:19:00.748Z,15.19
2017-06-02T00:20:01.327Z,14.94
2017-06-02T00:21:01.906Z,14.99
2017-06-02T00:22:02.485Z,15.00
2017-06-02T00:23:03.062Z,15.06
2017-06-02T00:24:03.641Z,15.54
2017-06-02T00:25:04.218Z,15.65
2017-06-02T00:26:04.796Z,15.72
2017-06-02T00:27:05.372Z,15.57
2017-06-02T00:28:05.949Z,15.88
2017-06-02T00:29:06.527Z,15.86
2017-06-02T00:30:07.107Z,15.88
2017-06-02T00:31:07.686Z,15.84
2017-06-02T00:32:08.266Z,16.17
2017-06-02T00:33:08.858Z,15.73
2017-06-02T00:34:09.438Z,15.36
2017-06-02T00:35:10.016Z,15.83
2017-06-02T00:36:10.596Z,15.61
2017-06-02T00:37:11.175Z,15.43
2017-06-02T00:38:11.752Z,15.46
2017-06-02T00:39:12.332Z,15.52
2017-06-02T00:40:12.911Z,15.42
2017-06-02T00:41:13.490Z,15.44
2017-06-02T00:42:14.071Z,15.67
2017-06-02T00:43:14.650Z,15.68
2017-06-02T00:44:15.224Z,15.67
2017-06-02T00:45:15.803Z,15.84
2017-06-02T00:46:16.378Z,15.83
2017-06-02T00:47:16.956Z,15.72
2017-06-02T00:48:17.537Z,15.61
2017-06-02T00:49:18.115Z,15.82
2017-06-02T00:50:18.694Z,15.59
2017-06-02T00:51:19.285Z,15.95
2017-06-02T00:52:19.864Z,15.84
2017-06-02T00:53:20.444Z,16.10
2017-06-02T00:54:21.021Z,16.10
2017-06-02T00:55:21.600Z,16.15
2017-06-02T00:56:22.178Z,16.05
2017-06-02T00:57:22.756Z,15.65
2017-06-02T00:58:23.335Z,15.70
2017-06-02T00:59:23.930Z,15.92
2017-06-02T01:00:24.493Z,15.57
2017-06-02T01:01:25.070Z,15.68
2017-06-02T01:02:25.648Z,15.52
2017-06-02T01:03:26.239Z,15.52
2017-06-02T01:04:26.816Z,15.36
2017-06-02T01:05:27.407Z,15.15
2017-06-02T01:06:27.987Z,15.11
2017-06-02T01:07:28.565Z,15.31
2017-06-02T01:08:29.145Z,15.17
2017-06-02T01:09:29.722Z,15.03
2017-06-02T01:10:30.314Z,15.21
2017-06-02T01:11:30.896Z,15.11
2017-06-02T01:12:31.473Z,15.27
2017-06-02T01:13:32.051Z,15.33
2017-06-02T01:14:32.644Z,15.47
2017-06-02T01:15:33.225Z,15.33
2017-06-02T01:16:33.806Z,15.17
2017-06-02T01:17:34.394Z,15.09
2017-06-02T01:18:34.973Z,15.25
2017-06-02T01:19:35.550Z,15.18
2017-06-02T01:20:36.130Z,15.04
2017-06-02T01:21:36.709Z,15.39
2017-06-02T01:22:37.291Z,15.31
2017-06-02T01:23:37.869Z,15.19
2017-06-02T01:24:38.443Z,15.43
2017-06-02T01:25:39.019Z,15.27
2017-06-02T01:26:39.596Z,15.15
2017-06-02T01:27:40.172Z,15.00
2017-06-02T01:28:40.747Z,14.89
2017-06-02T01:29:41.324Z,14.91
2017-06-02T01:30:41.901Z,14.99
2017-06-02T01:31:42.480Z,14.94
2017-06-02T01:32:43.079Z,14.99
2017-06-02T01:33:43.635Z,15.10
2017-06-02T01:34:44.211Z,15.21
2017-06-02T01:35:44.790Z,15.28
2017-06-02T01:36:45.367Z,15.10
2017-06-02T01:37:45.944Z,15.03
2017-06-02T01:38:46.519Z,15.04
2017-06-02T01:39:47.095Z,15.06
2017-06-02T01:40:47.672Z,15.06
2017-06-02T01:41:48.248Z,15.40
2017-06-02T01:42:48.825Z,15.61
2017-06-02T01:43:49.415Z,15.43
2017-06-02T01:44:49.992Z,15.09
2017-06-02T01:45:50.569Z,14.88
2017-06-02T01:46:51.147Z,14.86
2017-06-02T01:47:51.723Z,14.82
2017-06-02T01:48:52.300Z,15.25
2017-06-02T01:49:52.876Z,15.18
2017-06-02T01:50:53.453Z,15.02
2017-06-02T01:51:54.032Z,15.43
2017-06-02T01:52:54.609Z,15.62
2017-06-02T01:53:55.187Z,15.10
2017-06-02T01:54:55.763Z,15.14
2017-06-02T01:55:56.341Z,15.28
2017-06-02T01:56:56.916Z,15.11
2017-06-02T01:57:57.493Z,15.10
2017-06-02T01:58:58.070Z,15.07
2017-06-02T01:59:58.646Z,15.07
2017-06-02T02:00:59.223Z,14.84
2017-06-02T02:01:59.799Z,14.82
2017-06-02T02:03:00.379Z,14.44
2017-06-02T02:04:00.963Z,14.33
2017-06-02T02:05:01.541Z,14.44
2017-06-02T02:06:02.118Z,14.41
2017-06-02T02:07:02.695Z,14.68
2017-06-02T02:08:03.272Z,14.72
2017-06-02T02:09:03.849Z,14.55
2017-06-02T02:10:04.428Z,14.78
2017-06-02T02:11:05.002Z,15.04
2017-06-02T02:12:05.578Z,15.11
2017-06-02T02:13:06.157Z,15.03
2017-06-02T02:14:06.735Z,14.81
2017-06-02T02:15:07.311Z,14.53
2017-06-02T02:16:07.890Z,14.59
2017-06-02T02:17:08.465Z,14.48
2017-06-02T02:18:09.043Z,14.54
2017-06-02T02:19:09.618Z,14.51
2017-06-02T02:20:10.195Z,14.78
2017-06-02T02:21:10.773Z,15.06
2017-06-02T02:22:11.360Z,15.03
2017-06-02T02:23:11.937Z,14.65
2017-06-02T02:24:12.516Z,14.63
2017-06-02T02:25:13.090Z,14.58
2017-06-02T02:26:13.667Z,14.45
2017-06-02T02:27:14.242Z,14.47
2017-06-02T02:28:14.818Z,14.70
2017-06-02T02:29:15.394Z,14.82
2017-06-02T02:30:15.972Z,15.00
2017-06-02T02:31:16.547Z,14.86
2017-06-02T02:32:17.123Z,14.88
2017-06-02T02:33:17.698Z,14.65
2017-06-02T02:34:18.276Z,14.85
2017-06-02T02:35:18.866Z,15.03
2017-06-02T02:36:19.455Z,15.17
2017-06-02T02:37:20.033Z,15.06
2017-06-02T02:38:20.609Z,14.69
2017-06-02T02:39:21.187Z,14.69
2017-06-02T02:40:21.763Z,14.45
2017-06-02T02:41:22.340Z,14.51
2017-06-02T02:42:22.915Z,14.33
2017-06-02T02:43:23.492Z,14.32
2017-06-02T02:44:24.069Z,14.33
2017-06-02T02:45:24.641Z,14.26
2017-06-02T02:46:25.217Z,14.30
2017-06-02T02:47:25.795Z,14.30
2017-06-02T02:48:26.373Z,14.41
2017-06-02T02:49:26.951Z,14.47
2017-06-02T02:50:27.528Z,14.48
2017-06-02T02:51:28.103Z,14.37
2017-06-02T02:52:28.681Z,14.33
2017-06-02T02:53:29.271Z,14.29
2017-06-02T02:54:29.847Z,14.47
2017-06-02T02:55:30.425Z,14.29
2017-06-02T02:56:31.015Z,14.26
2017-06-02T02:57:31.591Z,14.11
2017-06-02T02:58:32.170Z,14.25
2017-06-02T02:59:32.745Z,14.35
2017-06-02T03:00:33.323Z,14.51
2017-06-02T03:01:33.899Z,14.50
2017-06-02T03:02:34.475Z,14.51
2017-06-02T03:03:35.051Z,14.65
2017-06-02T03:04:35.627Z,14.85
2017-06-02T03:05:36.204Z,14.86
2017-06-02T03:06:36.778Z,15.19
2017-06-02T03:07:37.354Z,15.10
2017-06-02T03:08:37.930Z,14.94
2017-06-02T03:09:38.509Z,14.82
2017-06-02T03:10:39.085Z,14.77
2017-06-02T03:11:39.663Z,14.99
2017-06-02T03:12:40.239Z,14.94
2017-06-02T03:13:40.816Z,15.04
2017-06-02T03:14:41.394Z,14.79
2017-06-02T03:15:41.972Z,14.79
2017-06-02T03:16:42.549Z,14.51
2017-06-02T03:17:43.125Z,14.23
2017-06-02T03:18:43.705Z,14.14
2017-06-02T03:19:44.282Z,14.04
2017-06-02T03:20:44.861Z,13.92
2017-06-02T03:21:45.451Z,13.77
2017-06-02T03:22:46.030Z,13.90
2017-06-02T03:23:46.619Z,14.22
2017-06-02T03:24:47.198Z,13.90
2017-06-02T03:25:47.776Z,14.10
2017-06-02T03:26:48.355Z,14.32
2017-06-02T03:27:48.932Z,14.68
2017-06-02T03:28:49.508Z,14.47
2017-06-02T03:29:50.086Z,14.50
2017-06-02T03:30:50.676Z,14.58
2017-06-02T03:31:51.266Z,14.28
2017-06-02T03:32:51.846Z,14.15
2017-06-02T03:33:52.422Z,13.77
2017-06-02T03:34:53.000Z,13.71
2017-06-02T03:35:53.576Z,13.87
2017-06-02T03:36:54.151Z,13.89
2017-06-02T03:37:54.752Z,13.78
2017-06-02T03:38:55.320Z,13.83
2017-06-02T03:39:55.895Z,13.71
2017-06-02T03:40:56.472Z,13.87
2017-06-02T03:41:57.049Z,14.30
2017-06-02T03:42:57.626Z,14.30
2017-06-02T03:43:58.203Z,14.28
2017-06-02T03:44:58.782Z,14.22
2017-06-02T03:45:59.358Z,14.08
2017-06-02T03:46:59.937Z,14.03
2017-06-02T03:48:00.514Z,13.78
2017-06-02T03:49:01.090Z,13.89
2017-06-02T03:50:01.667Z,13.67
2017-06-02T03:51:02.245Z,13.70
2017-06-02T03:52:02.824Z,13.90
2017-06-02T03:53:03.404Z,13.86
2017-06-02T03:54:03.982Z,14.05
2017-06-02T03:55:04.571Z,14.60
2017-06-02T03:56:05.148Z,14.92
2017-06-02T03:57:05.729Z,14.92
2017-06-02T03:58:06.307Z,14.88
2017-06-02T03:59:06.884Z,14.54
2017-06-02T04:00:07.465Z,14.40
2017-06-02T04:01:08.041Z,14.62
2017-06-02T04:02:08.621Z,14.47
2017-06-02T04:03:09.198Z,14.17
2017-06-02T04:04:09.775Z,14.40
2017-06-02T04:05:10.354Z,14.97
2017-06-02T04:06:10.932Z,14.92
2017-06-02T04:07:11.513Z,14.96
2017-06-02T04:08:12.089Z,14.82
2017-06-02T04:09:12.667Z,15.06
2017-06-02T04:10:13.259Z,15.09
2017-06-02T04:11:13.837Z,14.55
2017-06-02T04:12:14.425Z,14.23
2017-06-02T04:13:15.005Z,14.44
2017-06-02T04:14:15.583Z,14.40
2017-06-02T04:15:16.159Z,14.20
2017-06-02T04:16:16.738Z,14.22
2017-06-02T04:17:17.329Z,14.30
2017-06-02T04:18:17.906Z,14.18
2017-06-02T04:19:18.483Z,14.28
2017-06-02T04:20:19.062Z,14.69
2017-06-02T04:21:19.641Z,14.58
2017-06-02T04:22:20.220Z,14.58
2017-06-02T04:23:20.800Z,14.45
2017-06-02T04:24:21.378Z,14.20
2017-06-02T04:25:21.957Z,14.32
2017-06-02T04:26:22.539Z,14.53
2017-06-02T04:27:23.117Z,14.47
2017-06-02T04:28:23.697Z,14.29
2017-06-02T04:29:24.275Z,14.10
2017-06-02T04:30:24.856Z,14.12
2017-06-02T04:31:25.447Z,14.22
2017-06-02T04:32:26.029Z,14.29
2017-06-02T04:33:26.620Z,14.47
2017-06-02T04:34:27.199Z,14.77
2017-06-02T04:35:27.781Z,14.88
2017-06-02T04:36:28.360Z,15.17
2017-06-02T04:37:28.951Z,15.18
2017-06-02T04:38:29.532Z,15.03
2017-06-02T04:39:30.111Z,15.00
2017-06-02T04:40:30.691Z,15.07
2017-06-02T04:41:31.271Z,15.07
2017-06-02T04:42:31.850Z,15.29
2017-06-02T04:43:32.428Z,15.82
2017-06-02T04:44:33.008Z,15.57
2017-06-02T04:45:33.588Z,15.35
2017-06-02T04:46:34.169Z,15.37
2017-06-02T04:47:34.749Z,15.35
2017-06-02T04:48:35.328Z,15.47
2017-06-02T04:49:35.922Z,15.42
2017-06-02T04:50:36.500Z,15.65
2017-06-02T04:51:37.081Z,15.55
2017-06-02T04:52:37.668Z,15.43
2017-06-02T04:53:38.241Z,15.39
2017-06-02T04:54:38.819Z,15.49
2017-06-02T04:55:39.399Z,15.57
2017-06-02T04:56:39.980Z,15.55
2017-06-02T04:57:40.561Z,15.59
2017-06-02T04:58:41.155Z,15.97
2017-06-02T04:59:41.757Z,16.20
2017-06-02T05:00:42.314Z,16.42
2017-06-02T05:01:42.892Z,16.39
2017-06-02T05:02:43.473Z,16.47
2017-06-02T05:03:44.058Z,16.54
2017-06-02T05:04:44.648Z,16.69
2017-06-02T05:05:45.227Z,16.53
2017-06-02T05:06:45.807Z,16.69
2017-06-02T05:07:46.388Z,16.43
2017-06-02T05:08:46.967Z,16.42
2017-06-02T05:09:47.549Z,16.47
2017-06-02T05:10:48.129Z,16.60
2017-06-02T05:11:48.709Z,16.76
2017-06-02T05:12:49.290Z,16.81
2017-06-02T05:13:49.869Z,16.60
2017-06-02T05:14:50.451Z,16.42
2017-06-02T05:15:51.031Z,16.36
2017-06-02T05:16:51.611Z,16.36
2017-06-02T05:17:52.193Z,16.35
2017-06-02T05:18:52.772Z,16.32
2017-06-02T05:19:53.353Z,16.31
2017-06-02T05:20:53.933Z,16.35
2017-06-02T05:21:54.515Z,16.54
2017-06-02T05:22:55.097Z,16.58
2017-06-02T05:23:55.678Z,16.58
2017-06-02T05:24:56.258Z,16.81
2017-06-02T05:25:56.867Z,17.06
2017-06-02T05:26:57.420Z,17.24
2017-06-02T05:27:58.013Z,17.30
2017-06-02T05:28:58.596Z,17.38
2017-06-02T05:29:59.174Z,17.45
2017-06-02T05:30:59.755Z,17.36
2017-06-02T05:32:00.335Z,17.49
2017-06-02T05:33:00.916Z,17.46
2017-06-02T05:34:01.499Z,17.45
2017-06-02T05:35:02.079Z,17.74
2017-06-02T05:36:02.659Z,17.63
2017-06-02T05:37:03.242Z,17.59
2017-06-02T05:38:03.822Z,17.80
2017-06-02T05:39:04.404Z,17.74
2017-06-02T05:40:04.985Z,17.83
2017-06-02T05:41:05.565Z,17.89
2017-06-02T05:42:06.148Z,17.90
2017-06-02T05:43:06.728Z,17.86
2017-06-02T05:44:07.309Z,17.92
2017-06-02T05:45:07.890Z,17.87
2017-06-02T05:46:08.486Z,17.95
2017-06-02T05:47:09.067Z,18.11
2017-06-02T05:48:09.649Z,18.11
2017-06-02T05:49:10.228Z,18.10
2017-06-02T05:50:10.808Z,18.20
2017-06-02T05:51:11.389Z,18.20
2017-06-02T05:52:11.970Z,18.35
2017-06-02T05:53:12.553Z,18.50
2017-06-02T05:54:13.134Z,18.50
2017-06-02T05:55:13.729Z,18.40
2017-06-02T05:56:14.309Z,18.55
2017-06-02T05:57:14.904Z,18.59
2017-06-02T05:58:15.484Z,18.58
2017-06-02T05:59:16.065Z,18.49
2017-06-02T06:00:16.647Z,18.53
2017-06-02T06:01:17.231Z,18.74
2017-06-02T06:02:17.811Z,18.73
2017-06-02T06:03:18.393Z,18.84
2017-06-02T06:04:18.974Z,18.84
2017-06-02T06:05:19.557Z,18.88
2017-06-02T06:06:20.138Z,18.89
2017-06-02T06:07:20.731Z,18.93
2017-06-02T06:08:21.316Z,19.12
2017-06-02T06:09:21.895Z,19.15
2017-06-02T06:10:22.479Z,19.26
2017-06-02T06:11:23.056Z,19.29
2017-06-02T06:12:23.640Z,19.18
2017-06-02T06:13:24.223Z,19.12
2017-06-02T06:14:24.803Z,19.11
2017-06-02T06:15:25.385Z,19.27
2017-06-02T06:16:25.965Z,19.45
2017-06-02T06:17:26.547Z,19.49
2017-06-02T06:18:27.129Z,19.40
2017-06-02T06:19:27.723Z,19.45
2017-06-02T06:20:28.305Z,19.45
2017-06-02T06:21:28.887Z,19.49
2017-06-02T06:22:29.472Z,19.47
2017-06-02T06:23:30.049Z,19.74
2017-06-02T06:24:30.633Z,19.77
2017-06-02T06:25:31.214Z,19.86
2017-06-02T06:26:31.798Z,19.84
2017-06-02T06:27:32.380Z,20.02
2017-06-02T06:28:32.961Z,19.91
2017-06-02T06:29:33.545Z,20.07
2017-06-02T06:30:34.127Z,20.13
2017-06-02T06:31:34.708Z,20.00
2017-06-02T06:32:35.290Z,20.13
2017-06-02T06:33:35.872Z,20.28
2017-06-02T06:34:36.456Z,20.43
2017-06-02T06:35:37.037Z,20.40
2017-06-02T06:36:37.619Z,20.28
2017-06-02T06:37:38.213Z,20.24
2017-06-02T06:38:38.795Z,20.26
2017-06-02T06:39:39.376Z,20.29
2017-06-02T06:40:39.966Z,20.36
2017-06-02T06:41:40.555Z,20.52
2017-06-02T06:42:41.150Z,20.72
2017-06-02T06:43:41.731Z,20.78
2017-06-02T06:44:42.316Z,20.77
2017-06-02T06:45:42.899Z,20.62
2017-06-02T06:46:43.482Z,20.37
2017-06-02T06:47:44.065Z,20.66
2017-06-02T06:48:44.648Z,20.60
2017-06-02T06:49:45.232Z,20.74
2017-06-02T06:50:45.814Z,20.72
2017-06-02T06:51:46.396Z,21.02
2017-06-02T06:52:46.979Z,20.96
2017-06-02T06:53:47.561Z,21.07
2017-06-02T06:54:48.145Z,21.33
2017-06-02T06:55:48.727Z,21.32
2017-06-02T06:56:49.309Z,21.45
2017-06-02T06:57:49.891Z,21.36
2017-06-02T06:58:50.475Z,21.20
2017-06-02T06:59:51.059Z,21.37
2017-06-02T07:00:51.641Z,21.25
2017-06-02T07:01:52.222Z,21.09
2017-06-02T07:02:52.805Z,20.90
2017-06-02T07:03:53.387Z,20.82
2017-06-02T07:04:53.972Z,20.85
2017-06-02T07:05:54.553Z,21.02
2017-06-02T07:06:55.137Z,21.09
2017-06-02T07:07:55.721Z,20.99
2017-06-02T07:08:56.316Z,21.22
2017-06-02T07:09:56.899Z,21.42
2017-06-02T07:10:57.483Z,21.25
2017-06-02T07:11:58.066Z,21.33
2017-06-02T07:12:58.648Z,21.37
2017-06-02T07:13:59.231Z,21.37
2017-06-02T07:14:59.815Z,21.51
2017-06-02T07:16:00.399Z,21.57
2017-06-02T07:17:00.981Z,21.76
2017-06-02T07:18:01.564Z,21.79
2017-06-02T07:19:02.149Z,22.00
2017-06-02T07:20:02.731Z,22.04
2017-06-02T07:21:03.313Z,22.13
2017-06-02T07:22:03.895Z,22.23
2017-06-02T07:23:04.477Z,22.33
2017-06-02T07:24:05.060Z,22.51
2017-06-02T07:25:05.642Z,22.33
2017-06-02T07:26:06.225Z,22.54
2017-06-02T07:27:06.807Z,22.57
2017-06-02T07:28:07.392Z,22.80
2017-06-02T07:29:07.973Z,23.05
2017-06-02T07:30:08.554Z,23.03
2017-06-02T07:31:09.136Z,23.12
2017-06-02T07:32:09.718Z,23.13
2017-06-02T07:33:10.313Z,23.20
2017-06-02T07:34:10.894Z,23.41
2017-06-02T07:35:11.478Z,23.58
2017-06-02T07:36:12.063Z,23.68
2017-06-02T07:37:12.656Z,23.58
2017-06-02T07:38:13.239Z,23.51
2017-06-02T07:39:13.821Z,23.44
2017-06-02T07:40:14.402Z,23.47
2017-06-02T07:41:14.996Z,23.61
2017-06-02T07:42:15.578Z,23.41
2017-06-02T07:43:16.166Z,23.27
2017-06-02T07:44:16.745Z,23.37
2017-06-02T07:45:17.327Z,23.51
2017-06-02T07:46:17.908Z,23.43
2017-06-02T07:47:18.492Z,23.39
2017-06-02T07:48:19.074Z,23.54
2017-06-02T07:49:19.655Z,23.41
2017-06-02T07:50:20.236Z,23.61
2017-06-02T07:51:20.819Z,23.37
2017-06-02T07:52:21.403Z,23.43
2017-06-02T07:53:21.986Z,23.66
2017-06-02T07:54:22.569Z,23.61
2017-06-02T07:55:23.151Z,23.77
2017-06-02T07:56:23.745Z,23.78
2017-06-02T07:57:24.328Z,24.03
2017-06-02T07:58:24.912Z,24.17
2017-06-02T07:59:25.492Z,24.16
2017-06-02T08:00:26.075Z,24.24
2017-06-02T08:01:26.659Z,24.26
2017-06-02T08:02:27.241Z,24.29
2017-06-02T08:03:27.823Z,24.08
2017-06-02T08:04:28.406Z,23.91
2017-06-02T08:05:28.989Z,24.14
2017-06-02T08:06:29.571Z,24.28
2017-06-02T08:07:30.154Z,24.32
2017-06-02T08:08:30.737Z,24.42
2017-06-02T08:09:31.320Z,24.26
2017-06-02T08:10:31.902Z,24.18
2017-06-02T08:11:32.486Z,23.99
2017-06-02T08:12:33.067Z,23.87
2017-06-02T08:13:33.648Z,24.14
2017-06-02T08:14:34.233Z,24.39
2017-06-02T08:15:34.812Z,24.24
2017-06-02T08:16:35.396Z,24.10
2017-06-02T08:17:35.993Z,24.17
2017-06-02T08:18:36.575Z,24.18
2017-06-02T08:19:37.157Z,24.40
2017-06-02T08:20:37.742Z,24.48
2017-06-02T08:21:38.340Z,24.70
2017-06-02T08:22:38.922Z,24.33
2017-06-02T08:23:39.506Z,24.53
2017-06-02T08:24:40.088Z,24.89
2017-06-02T08:25:40.686Z,24.43
2017-06-02T08:26:41.277Z,24.63
2017-06-02T08:27:41.859Z,24.96
2017-06-02T08:28:42.441Z,24.93
2017-06-02T08:29:43.038Z,24.93
2017-06-02T08:30:43.623Z,25.28
2017-06-02T08:31:44.208Z,25.40
2017-06-02T08:32:44.791Z,25.62
2017-06-02T08:33:45.377Z,25.73
2017-06-02T08:34:45.959Z,25.73
2017-06-02T08:35:46.542Z,25.69
2017-06-02T08:36:47.123Z,25.58
2017-06-02T08:37:47.706Z,25.53
2017-06-02T08:38:48.290Z,25.22
2017-06-02T08:39:48.875Z,25.13
2017-06-02T08:40:49.459Z,25.41
2017-06-02T08:41:50.042Z,25.70
2017-06-02T08:42:50.628Z,25.40
2017-06-02T08:43:51.211Z,25.50
2017-06-02T08:44:51.793Z,25.59
2017-06-02T08:45:52.381Z,25.73
2017-06-02T08:46:52.973Z,25.98
2017-06-02T08:47:53.545Z,26.07
2017-06-02T08:48:54.129Z,26.07
2017-06-02T08:49:54.712Z,26.25
2017-06-02T08:50:55.297Z,26.21
2017-06-02T08:51:55.878Z,26.07
2017-06-02T08:52:56.459Z,26.02
2017-06-02T08:53:57.044Z,26.25
2017-06-02T08:54:57.638Z,26.07
2017-06-02T08:55:58.222Z,26.10
2017-06-02T08:56:58.806Z,26.33
2017-06-02T08:57:59.388Z,26.26
2017-06-02T08:58:59.970Z,26.22
2017-06-02T09:00:00.553Z,25.75
2017-06-02T09:01:01.136Z,25.78
2017-06-02T09:02:01.723Z,26.05
2017-06-02T09:03:02.307Z,25.65
2017-06-02T09:04:02.885Z,25.47
2017-06-02T09:05:03.470Z,25.58
2017-06-02T09:06:04.053Z,25.72
2017-06-02T09:07:04.637Z,26.07
2017-06-02T09:08:05.224Z,26.26
2017-06-02T09:09:05.805Z,26.65
2017-06-02T09:10:06.390Z,26.65
2017-06-02T09:11:06.988Z,26.88
2017-06-02T09:12:07.571Z,26.74
2017-06-02T09:13:08.154Z,26.93
2017-06-02T09:14:08.740Z,26.96
2017-06-02T09:15:09.324Z,26.55
2017-06-02T09:16:09.908Z,26.77
2017-06-02T09:17:10.492Z,26.62
2017-06-02T09:18:11.078Z,26.26
2017-06-02T09:19:11.663Z,26.44
2017-06-02T09:20:12.247Z,26.90
2017-06-02T09:21:12.832Z,27.00
2017-06-02T09:22:13.417Z,26.52
2017-06-02T09:23:14.000Z,25.95
2017-06-02T09:24:14.584Z,25.63
2017-06-02T09:25:15.170Z,26.09
2017-06-02T09:26:15.752Z,26.51
2017-06-02T09:27:16.335Z,26.62
2017-06-02T09:28:16.916Z,26.60
2017-06-02T09:29:17.501Z,26.85
2017-06-02T09:30:18.085Z,26.93
2017-06-02T09:31:18.667Z,26.62
2017-06-02T09:32:19.250Z,26.03
2017-06-02T09:33:19.833Z,26.44
2017-06-02T09:34:20.417Z,26.51
2017-06-02T09:35:21.012Z,26.53
2017-06-02T09:36:21.596Z,26.51
2017-06-02T09:37:22.178Z,26.93
2017-06-02T09:38:22.763Z,27.15
2017-06-02T09:39:23.346Z,26.96
2017-06-02T09:40:23.929Z,27.00
2017-06-02T09:41:24.513Z,26.96
2017-06-02T09:42:25.096Z,26.88
2017-06-02T09:43:25.691Z,26.65
2017-06-02T09:44:26.275Z,26.71
2017-06-02T09:45:26.858Z,27.00
2017-06-02T09:46:27.442Z,27.27
2017-06-02T09:47:28.026Z,27.14
2017-06-02T09:48:28.611Z,26.97
2017-06-02T09:49:29.195Z,26.88
2017-06-02T09:50:29.779Z,27.02
2017-06-02T09:51:30.366Z,26.62
2017-06-02T09:52:30.953Z,26.77
2017-06-02T09:53:31.535Z,26.60
2017-06-02T09:54:32.119Z,26.85
2017-06-02T09:55:32.704Z,27.14
2017-06-02T09:56:33.289Z,27.49
2017-06-02T09:57:33.886Z,27.60
2017-06-02T09:58:34.469Z,27.78
2017-06-02T09:59:35.051Z,27.92
2017-06-02T10:00:35.636Z,27.73
2017-06-02T10:01:36.220Z,27.60
2017-06-02T10:02:36.804Z,27.87
2017-06-02T10:03:37.388Z,27.83
2017-06-02T10:04:37.974Z,27.86
2017-06-02T10:05:38.557Z,27.85
2017-06-02T10:06:39.142Z,28.10
2017-06-02T10:07:39.726Z,28.10
2017-06-02T10:08:40.323Z,28.22
2017-06-02T10:09:40.906Z,28.20
2017-06-02T10:10:41.491Z,28.22
2017-06-02T10:11:42.088Z,28.23
2017-06-02T10:12:42.673Z,28.30
2017-06-02T10:13:43.258Z,28.10
2017-06-02T10:14:43.844Z,28.10
2017-06-02T10:15:44.429Z,27.93
2017-06-02T10:16:45.028Z,27.55
2017-06-02T10:17:45.616Z,27.65
2017-06-02T10:18:46.215Z,27.85
2017-06-02T10:19:46.812Z,27.96
2017-06-02T10:20:47.396Z,28.17
2017-06-02T10:21:47.982Z,27.73
2017-06-02T10:22:48.567Z,28.08
2017-06-02T10:23:49.153Z,28.25
2017-06-02T10:24:49.752Z,27.47
2017-06-02T10:25:50.339Z,27.85
2017-06-02T10:26:50.923Z,28.10
2017-06-02T10:27:51.509Z,28.05
2017-06-02T10:28:52.096Z,28.51
2017-06-02T10:29:52.682Z,28.51
2017-06-02T10:30:53.265Z,27.87
2017-06-02T10:31:53.851Z,27.95
2017-06-02T10:32:54.435Z,27.26
2017-06-02T10:33:55.020Z,27.35
2017-06-02T10:34:55.604Z,27.39
2017-06-02T10:35:56.192Z,27.89
2017-06-02T10:36:56.790Z,28.07
2017-06-02T10:37:57.377Z,28.00
2017-06-02T10:38:57.961Z,28.12
2017-06-02T10:39:58.546Z,27.96
2017-06-02T10:40:59.132Z,28.08
2017-06-02T10:41:59.716Z,27.98
2017-06-02T10:43:00.301Z,27.86
2017-06-02T10:44:00.887Z,27.98
2017-06-02T10:45:01.474Z,27.83
2017-06-02T10:46:02.057Z,28.27
2017-06-02T10:47:02.641Z,28.69
2017-06-02T10:48:03.238Z,28.89
2017-06-02T10:49:03.823Z,28.81
2017-06-02T10:50:04.420Z,28.89
2017-06-02T10:51:05.005Z,28.47
2017-06-02T10:52:05.589Z,27.89
2017-06-02T10:53:06.175Z,27.63
2017-06-02T10:54:06.760Z,27.52
2017-06-02T10:55:07.344Z,27.95
2017-06-02T10:56:07.931Z,28.42
2017-06-02T10:57:08.514Z,27.89
2017-06-02T10:58:09.099Z,27.48
2017-06-02T10:59:09.684Z,27.68
2017-06-02T11:00:10.269Z,28.48
2017-06-02T11:01:10.855Z,29.01
2017-06-02T11:02:11.439Z,28.19
2017-06-02T11:03:12.036Z,28.42
2017-06-02T11:04:12.622Z,28.14
2017-06-02T11:05:13.208Z,28.38
2017-06-02T11:06:13.798Z,28.12
2017-06-02T11:07:14.389Z,28.64
2017-06-02T11:08:14.976Z,28.49
2017-06-02T11:09:15.561Z,28.81
2017-06-02T11:10:16.148Z,28.72
2017-06-02T11:11:16.735Z,28.97
2017-06-02T11:12:17.318Z,29.20
2017-06-02T11:13:17.903Z,29.02
2017-06-02T11:14:18.499Z,29.12
2017-06-02T11:15:19.085Z,29.35
2017-06-02T11:16:19.684Z,29.50
2017-06-02T11:17:20.280Z,29.26
2017-06-02T11:18:20.865Z,29.53
2017-06-02T11:19:21.451Z,29.29
2017-06-02T11:20:22.036Z,28.82
2017-06-02T11:21:22.622Z,28.12
2017-06-02T11:22:23.207Z,28.49
2017-06-02T11:23:23.794Z,29.02
2017-06-02T11:24:24.380Z,29.22
2017-06-02T11:25:24.966Z,29.72
2017-06-02T11:26:25.551Z,29.78
2017-06-02T11:27:26.140Z,29.39
2017-06-02T11:28:26.722Z,29.13
2017-06-02T11:29:27.321Z,28.96
2017-06-02T11:30:27.906Z,29.13
2017-06-02T11:31:28.492Z,29.23
2017-06-02T11:32:29.079Z,29.07
2017-06-02T11:33:29.666Z,28.85
2017-06-02T11:34:30.251Z,28.49
2017-06-02T11:35:30.835Z,28.88
2017-06-02T11:36:31.422Z,29.45
2017-06-02T11:37:32.006Z,30.03
2017-06-02T11:38:32.592Z,30.27
2017-06-02T11:39:33.177Z,30.09
2017-06-02T11:40:33.764Z,29.63
2017-06-02T11:41:34.351Z,29.10
2017-06-02T11:42:34.951Z,28.84
2017-06-02T11:43:35.536Z,28.44
2017-06-02T11:44:36.121Z,28.27
2017-06-02T11:45:36.709Z,28.37
2017-06-02T11:46:37.295Z,28.42
2017-06-02T11:47:37.880Z,28.35
2017-06-02T11:48:38.468Z,28.89
2017-06-02T11:49:39.052Z,29.53
2017-06-02T11:50:39.638Z,29.84
2017-06-02T11:51:40.223Z,29.97
2017-06-02T11:52:40.810Z,30.55
2017-06-02T11:53:41.397Z,30.40
2017-06-02T11:54:41.983Z,30.23
2017-06-02T11:55:42.581Z,29.65
2017-06-02T11:56:43.167Z,29.38
2017-06-02T11:57:43.753Z,29.14
2017-06-02T11:58:44.339Z,30.05
2017-06-02T11:59:44.927Z,29.82
2017-06-02T12:00:45.536Z,30.18
2017-06-02T12:01:46.100Z,29.07
2017-06-02T12:02:46.687Z,28.88
2017-06-02T12:03:47.273Z,28.48
2017-06-02T12:04:47.872Z,28.81
2017-06-02T12:05:48.457Z,29.16
2017-06-02T12:06:49.043Z,29.71
2017-06-02T12:07:49.629Z,29.47
2017-06-02T12:08:50.216Z,29.36
2017-06-02T12:09:50.802Z,28.97
2017-06-02T12:10:51.389Z,28.78
2017-06-02T12:11:51.977Z,28.59
2017-06-02T12:12:52.562Z,28.88
2017-06-02T12:13:53.149Z,29.23
2017-06-02T12:14:53.736Z,29.59
2017-06-02T12:15:54.323Z,29.05
2017-06-02T12:16:54.907Z,29.26
2017-06-02T12:17:55.494Z,29.47
2017-06-02T12:18:56.081Z,29.53
2017-06-02T12:19:56.666Z,28.41
2017-06-02T12:20:57.256Z,28.04
2017-06-02T12:21:57.840Z,28.27
2017-06-02T12:22:58.426Z,29.01
2017-06-02T12:23:59.011Z,29.69
2017-06-02T12:24:59.597Z,29.44
2017-06-02T12:26:00.194Z,28.82
2017-06-02T12:27:00.782Z,29.56
2017-06-02T12:28:01.366Z,30.16
2017-06-02T12:29:01.952Z,29.36
2017-06-02T12:30:02.537Z,28.56
2017-06-02T12:31:03.123Z,29.02
2017-06-02T12:32:03.713Z,29.50
2017-06-02T12:33:04.296Z,29.39
2017-06-02T12:34:04.883Z,29.41
2017-06-02T12:35:05.471Z,28.23
2017-06-02T12:36:06.056Z,27.98
2017-06-02T12:37:06.640Z,28.01
2017-06-02T12:38:07.228Z,28.27
2017-06-02T12:39:07.813Z,28.88
2017-06-02T12:40:08.399Z,28.85
2017-06-02T12:41:08.985Z,29.57
2017-06-02T12:42:09.570Z,30.03
2017-06-02T12:43:10.168Z,30.12
2017-06-02T12:44:10.756Z,30.05
2017-06-02T12:45:11.341Z,29.73
2017-06-02T12:46:11.939Z,29.56
2017-06-02T12:47:12.525Z,29.29
2017-06-02T12:48:13.109Z,29.51
2017-06-02T12:49:13.696Z,29.08
2017-06-02T12:50:14.295Z,28.96
2017-06-02T12:51:14.883Z,28.94
2017-06-02T12:52:15.468Z,29.24
2017-06-02T12:53:16.053Z,29.41
2017-06-02T12:54:16.643Z,29.38
2017-06-02T12:55:17.226Z,29.44
2017-06-02T12:56:17.826Z,30.05
2017-06-02T12:57:18.412Z,29.87
2017-06-02T12:58:19.000Z,29.20
2017-06-02T12:59:19.583Z,28.94
2017-06-02T13:00:20.170Z,29.02